Cap Aiguades — FMII — position and weather

sailwx.info

Track history (hours):
 
Tides and Currents Weather Stations Pressure Air Temp Water Temp Dewpoint Dewpoint Depression Visibility Wind Speed Wind Dir Waves Ship Positions

Cap Aiguades

Last reported at 2015-May-05 17:15 UTC. Time now 2015-May-06 03:24 UTC.
Position N 43°24' E 004°55'.

; draft 4.5 m.

Type: Ship. MMSI: 228237800.

Date/timePositionNaut miles runAvg speedWind from/ knotsBaromVisibWave heightAir tempDewpointWater temp
2015-May-05 17:15N 43°24' E 004°55'3 3.9
2015-May-05 16:30N 43°24' E 004°59'0 0.0
2015-May-05 15:30N 43°24' E 004°59'0 0.0
2015-May-05 14:30N 43°24' E 004°59'0 0.0
2015-May-05 13:30N 43°24' E 004°59'0 0.0
2015-May-05 12:33N 43°24' E 004°59'0 0.0
2015-May-05 11:33N 43°24' E 004°59'0 0.0
2015-May-05 10:30N 43°24' E 004°59'0 0.0
2015-May-05 09:30N 43°24' E 004°59'0 0.0
2015-May-05 08:33N 43°24' E 004°59'0 0.0
2015-May-05 07:30N 43°24' E 004°59'0 0.0
2015-May-05 06:30N 43°24' E 004°59'0 0.0
2015-May-05 05:30N 43°24' E 004°59'0 0.0
2015-May-05 04:19N 43°24' E 004°59'1 0.7
2015-May-05 03:29N 43°24' E 004°59'0 0.0
2015-May-05 02:29N 43°24' E 004°59'0 0.0
2015-May-05 01:32N 43°24' E 004°59'0 0.0
2015-May-05 00:32N 43°24' E 004°59'0 0.0
2015-May-04 23:29N 43°24' E 004°59'0 0.0
2015-May-04 22:23N 43°24' E 004°59'0 0.0
2015-May-04 21:23N 43°24' E 004°59'0 0.0
2015-May-04 20:32N 43°24' E 004°59'0 0.0
2015-May-04 19:29N 43°24' E 004°59'0 0.0
2015-May-04 18:32N 43°24' E 004°59'0 0.0
2015-May-04 17:29N 43°24' E 004°59'0 0.0
2015-May-04 16:29N 43°24' E 004°59'0 0.0
2015-May-04 15:32N 43°24' E 004°59'0 0.0
2015-May-04 14:23N 43°24' E 004°59'0 0.0
2015-May-04 13:29N 43°24' E 004°59'0 0.0
2015-May-04 12:32N 43°24' E 004°59'5 0.8
2015-May-04 06:21N 43°24' E 004°52'5 5.9
2015-May-04 05:28N 43°24' E 004°59'0 0.0
2015-May-04 04:22N 43°24' E 004°59'0 0.0
2015-May-04 03:22N 43°24' E 004°59'0 0.0
2015-May-04 02:28N 43°24' E 004°59'0 0.0
2015-May-04 01:28N 43°24' E 004°59'0 0.0
2015-May-04 00:22N 43°24' E 004°59'0 0.0
2015-May-03 23:28N 43°24' E 004°59'0 0.0
2015-May-03 22:22N 43°24' E 004°59'0 0.0
2015-May-03 21:31N 43°24' E 004°59'0 0.0
2015-May-03 20:25N 43°24' E 004°59'0 0.4
2015-May-03 19:28N 43°24' E 004°59'0 0.0
2015-May-03 18:22N 43°24' E 004°59'0 0.0
2015-May-03 17:16N 43°24' E 004°59'0 0.0
2015-May-03 16:28N 43°24' E 004°59'0 0.0
2015-May-03 15:28N 43°24' E 004°59'0 0.0
2015-May-03 14:28N 43°24' E 004°59'0 0.0
2015-May-03 13:22N 43°24' E 004°59'0 0.0
2015-May-03 12:22N 43°24' E 004°59'4 5.1
2015-May-03 11:33N 43°25' E 004°54'0 0.1
2015-May-03 10:05N 43°25' E 004°54'0 0.0
2015-May-03 09:23N 43°25' E 004°54'2 0.7
2015-May-03 06:21N 43°24' E 004°56'2 2.7
2015-May-03 05:30N 43°24' E 004°59'0 0.0
2015-May-03 04:30N 43°24' E 004°59'0 0.0
2015-May-03 03:30N 43°24' E 004°59'0 0.0
2015-May-03 02:30N 43°24' E 004°59'0 0.0
2015-May-03 01:30N 43°24' E 004°59'0 0.0
2015-May-03 00:30N 43°24' E 004°59'0 0.0
2015-May-02 23:30N 43°24' E 004°59'0 0.0
2015-May-02 22:30N 43°24' E 004°59'0 0.0
2015-May-02 21:33N 43°24' E 004°59'0 0.0
2015-May-02 20:30N 43°24' E 004°59'0 0.0
2015-May-02 19:33N 43°24' E 004°59'0 0.0
2015-May-02 18:24N 43°24' E 004°59'0 0.0
2015-May-02 17:30N 43°24' E 004°59'1 0.6
2015-May-02 16:33N 43°23' E 004°59'13 9.2
2015-May-02 15:09N 43°20' E 005°16'3 3.6
2015-May-02 14:20N 43°21' E 005°20'0 0.0
2015-May-02 13:32N 43°21' E 005°20'0 0.0
2015-May-02 12:29N 43°21' E 005°20'0 0.0
2015-May-02 11:31N 43°21' E 005°20'0 0.0
2015-May-02 10:28N 43°21' E 005°20'1 0.4
2015-May-02 07:30N 43°21' E 005°18'1310.0
2015-May-02 06:10N 43°19' E 005°00'5 7.3
2015-May-02 05:31N 43°24' E 004°59'0 0.0
2015-May-02 04:31N 43°24' E 004°59'0 0.0
2015-May-02 03:31N 43°24' E 004°59'0 0.0
2015-May-02 02:31N 43°24' E 004°59'0 0.0
2015-May-02 01:31N 43°24' E 004°59'0 0.0
2015-May-02 00:31N 43°24' E 004°59'0 0.0
2015-May-01 23:25N 43°24' E 004°59'0 0.0
2015-May-01 22:31N 43°24' E 004°59'0 0.0
2015-May-01 21:31N 43°24' E 004°59'0 0.4
2015-May-01 20:25N 43°24' E 004°59'0 0.0
2015-May-01 19:31N 43°24' E 004°59'0 0.0
2015-May-01 18:31N 43°24' E 004°59'0 0.0
2015-May-01 17:31N 43°24' E 004°59'0 0.0
2015-May-01 16:31N 43°24' E 004°59'0 0.0
2015-May-01 15:31N 43°24' E 004°59'0 0.0
2015-May-01 14:31N 43°24' E 004°59'0 0.0
2015-May-01 13:19N 43°24' E 004°59'0 0.0
2015-May-01 12:31N 43°24' E 004°59'0 0.0
2015-May-01 11:31N 43°24' E 004°59'0 0.0
2015-May-01 10:25N 43°24' E 004°59'0 0.0
2015-May-01 09:31N 43°24' E 004°59'0 0.0
2015-May-01 08:28N 43°24' E 004°59'0 0.0
2015-May-01 07:31N 43°24' E 004°59'0 0.0
2015-May-01 06:31N 43°24' E 004°59'0 0.0
2015-May-01 05:31N 43°24' E 004°59'0 0.0
2015-May-01 04:31N 43°24' E 004°59'0 0.0
2015-May-01 03:25N 43°24' E 004°59'0 0.0
2015-May-01 02:28N 43°24' E 004°59'0 0.0
2015-May-01 01:17N 43°24' E 004°59'0 0.0
2015-May-01 00:25N 43°24' E 004°59'0 0.0
2015-Apr-30 23:31N 43°24' E 004°59'0 0.0
2015-Apr-30 22:31N 43°24' E 004°59'0 0.0
2015-Apr-30 21:31N 43°24' E 004°59'0 0.0
2015-Apr-30 20:31N 43°24' E 004°59'0 0.0
2015-Apr-30 19:31N 43°24' E 004°59'0 0.0
2015-Apr-30 18:31N 43°24' E 004°59'0 0.0
2015-Apr-30 17:25N 43°24' E 004°59'0 0.0
2015-Apr-30 16:31N 43°24' E 004°59'0 0.0
2015-Apr-30 15:28N 43°24' E 004°59'0 0.0
2015-Apr-30 14:28N 43°24' E 004°59'0 0.4
2015-Apr-30 13:34N 43°24' E 004°59'0 0.1
2015-Apr-30 09:31N 43°24' E 004°59'0 0.0
2015-Apr-30 08:31N 43°24' E 004°59'0 0.0
2015-Apr-30 07:31N 43°24' E 004°59'0 0.0
2015-Apr-30 06:32N 43°24' E 004°59'0 0.0
2015-Apr-30 05:32N 43°24' E 004°59'0 0.0
2015-Apr-30 04:32N 43°24' E 004°59'0 0.0
2015-Apr-30 03:23N 43°24' E 004°59'0 0.0
2015-Apr-30 02:32N 43°24' E 004°59'1 0.1
2015-Apr-29 18:27N 43°24' E 004°59'0 0.0
2015-Apr-29 17:27N 43°24' E 004°59'0 0.0
2015-Apr-29 16:33N 43°24' E 004°59'0 0.0
2015-Apr-29 15:33N 43°24' E 004°59'0 0.0
2015-Apr-29 14:33N 43°24' E 004°59'0 0.0
2015-Apr-29 13:33N 43°24' E 004°59'0 0.0
2015-Apr-29 12:33N 43°24' E 004°59'0 0.0
2015-Apr-29 11:30N 43°24' E 004°59'0 0.0
2015-Apr-29 10:33N 43°24' E 004°59'0 0.0
2015-Apr-29 09:33N 43°24' E 004°59'0 0.0
2015-Apr-29 08:33N 43°24' E 004°59'1 0.6
2015-Apr-29 07:29N 43°24' E 004°59'0 0.0
2015-Apr-29 06:29N 43°24' E 004°59'0 0.0
2015-Apr-29 05:29N 43°24' E 004°59'0 0.0
2015-Apr-29 04:29N 43°24' E 004°59'0 0.0
2015-Apr-29 03:29N 43°24' E 004°59'0 0.0
2015-Apr-29 02:29N 43°24' E 004°59'0 0.0
2015-Apr-29 01:29N 43°24' E 004°59'0 0.0
2015-Apr-29 00:29N 43°24' E 004°59'0 0.0
2015-Apr-28 23:23N 43°24' E 004°59'0 0.0
2015-Apr-28 22:29N 43°24' E 004°59'0 0.0
2015-Apr-28 21:29N 43°24' E 004°59'0 0.1
2015-Apr-28 20:30N 43°24' E 004°59'2 0.4
2015-Apr-28 15:10N 43°23' E 004°57'2 2.6
2015-Apr-28 14:25N 43°24' E 004°59'0 0.0
2015-Apr-28 13:31N 43°24' E 004°59'0 0.0
2015-Apr-28 12:31N 43°24' E 004°59'0 0.0
2015-Apr-28 11:28N 43°24' E 004°59'0 0.0
2015-Apr-28 10:28N 43°24' E 004°59'0 0.0
2015-Apr-28 09:31N 43°24' E 004°59'0 0.0
2015-Apr-28 08:31N 43°24' E 004°59'0 0.0
2015-Apr-28 07:31N 43°24' E 004°59'1 0.6
2015-Apr-28 06:31N 43°24' E 004°59'0 0.0
2015-Apr-28 05:28N 43°24' E 004°59'0 0.0
2015-Apr-28 04:31N 43°24' E 004°59'0 0.0
2015-Apr-28 03:31N 43°24' E 004°59'0 0.0
2015-Apr-28 02:31N 43°24' E 004°59'0 0.0
2015-Apr-28 01:31N 43°24' E 004°59'0 0.0
2015-Apr-28 00:31N 43°24' E 004°59'0 0.0
2015-Apr-27 23:31N 43°24' E 004°59'0 0.0
2015-Apr-27 22:31N 43°24' E 004°59'0 0.0
2015-Apr-27 21:31N 43°24' E 004°59'0 0.0
2015-Apr-27 20:31N 43°24' E 004°59'0 0.1
2015-Apr-27 13:30N 43°24' E 004°59'0 0.0
2015-Apr-27 12:30N 43°24' E 004°59'0 0.0
2015-Apr-27 11:33N 43°24' E 004°59'0 0.0
2015-Apr-27 10:30N 43°24' E 004°59'0 0.0
2015-Apr-27 09:30N 43°24' E 004°59'0 0.0
2015-Apr-27 08:33N 43°24' E 004°59'0 0.0
2015-Apr-27 07:30N 43°24' E 004°59'0 0.0
2015-Apr-27 06:30N 43°24' E 004°59'0 0.4
2015-Apr-27 05:28N 43°24' E 004°59'0 0.0
2015-Apr-27 04:22N 43°24' E 004°59'0 0.0
2015-Apr-27 03:28N 43°24' E 004°59'0 0.0
2015-Apr-27 02:28N 43°24' E 004°59'0 0.0
2015-Apr-27 01:28N 43°24' E 004°59'0 0.0
2015-Apr-27 00:28N 43°24' E 004°59'0 0.0
2015-Apr-26 23:28N 43°24' E 004°59'0 0.0
2015-Apr-26 22:31N 43°24' E 004°59'0 0.0
2015-Apr-26 21:28N 43°24' E 004°59'0 0.0
2015-Apr-26 20:31N 43°24' E 004°59'0 0.0
2015-Apr-26 19:28N 43°24' E 004°59'0 0.0
2015-Apr-26 18:22N 43°24' E 004°59'0 0.0
2015-Apr-26 17:28N 43°24' E 004°59'0 0.0
2015-Apr-26 16:28N 43°24' E 004°59'0 0.0
2015-Apr-26 15:28N 43°24' E 004°59'0 0.0
2015-Apr-26 14:28N 43°24' E 004°59'0 0.0
2015-Apr-26 13:22N 43°24' E 004°59'0 0.0
2015-Apr-26 12:28N 43°24' E 004°59'0 0.0
2015-Apr-26 11:28N 43°24' E 004°59'0 0.0
2015-Apr-26 10:28N 43°24' E 004°59'0 0.0
2015-Apr-26 09:28N 43°24' E 004°59'0 0.0
2015-Apr-26 08:28N 43°24' E 004°59'0 0.0
2015-Apr-26 07:28N 43°24' E 004°59'0 0.0
2015-Apr-26 06:28N 43°24' E 004°59'0 0.0
2015-Apr-26 05:25N 43°24' E 004°59'0 0.0
2015-Apr-26 04:28N 43°24' E 004°59'0 0.0
2015-Apr-26 03:22N 43°24' E 004°59'0 0.0
2015-Apr-26 02:28N 43°24' E 004°59'0 0.0
2015-Apr-26 01:31N 43°24' E 004°59'0 0.0
2015-Apr-26 00:28N 43°24' E 004°59'0 0.0
2015-Apr-25 23:28N 43°24' E 004°59'0 0.0
2015-Apr-25 22:28N 43°24' E 004°59'0 0.0
2015-Apr-25 21:22N 43°24' E 004°59'0 0.0
2015-Apr-25 20:31N 43°24' E 004°59'0 0.0
2015-Apr-25 19:31N 43°24' E 004°59'0 0.0
2015-Apr-25 18:28N 43°24' E 004°59'0 0.0
2015-Apr-25 17:28N 43°24' E 004°59'  
Track history (hours):
 
Tides and Currents Weather Stations Pressure Air Temp Water Temp Dewpoint Dewpoint Depression Visibility Wind Speed Wind Dir Waves Ship Positions

Cap Aiguades

Last reported at 2015-May-05 17:15 UTC. Time now 2015-May-06 03:24 UTC.
Position N 43°24' E 004°55'.

; draft 4.5 m.

Type: Ship. MMSI: 228237800.

Date/timePositionNaut miles runAvg speedWind from/ knotsBaromVisibWave heightAir tempDewpointWater temp
2015-May-05 17:15N 43°24' E 004°55'3 3.9
2015-May-05 16:30N 43°24' E 004°59'0 0.0
2015-May-05 15:30N 43°24' E 004°59'0 0.0
2015-May-05 14:30N 43°24' E 004°59'0 0.0
2015-May-05 13:30N 43°24' E 004°59'0 0.0
2015-May-05 12:33N 43°24' E 004°59'0 0.0
2015-May-05 11:33N 43°24' E 004°59'0 0.0
2015-May-05 10:30N 43°24' E 004°59'0 0.0
2015-May-05 09:30N 43°24' E 004°59'0 0.0
2015-May-05 08:33N 43°24' E 004°59'0 0.0
2015-May-05 07:30N 43°24' E 004°59'0 0.0
2015-May-05 06:30N 43°24' E 004°59'0 0.0
2015-May-05 05:30N 43°24' E 004°59'0 0.0
2015-May-05 04:19N 43°24' E 004°59'1 0.7
2015-May-05 03:29N 43°24' E 004°59'0 0.0
2015-May-05 02:29N 43°24' E 004°59'0 0.0
2015-May-05 01:32N 43°24' E 004°59'0 0.0
2015-May-05 00:32N 43°24' E 004°59'0 0.0
2015-May-04 23:29N 43°24' E 004°59'0 0.0
2015-May-04 22:23N 43°24' E 004°59'0 0.0
2015-May-04 21:23N 43°24' E 004°59'0 0.0
2015-May-04 20:32N 43°24' E 004°59'0 0.0
2015-May-04 19:29N 43°24' E 004°59'0 0.0
2015-May-04 18:32N 43°24' E 004°59'0 0.0
2015-May-04 17:29N 43°24' E 004°59'0 0.0
2015-May-04 16:29N 43°24' E 004°59'0 0.0
2015-May-04 15:32N 43°24' E 004°59'0 0.0
2015-May-04 14:23N 43°24' E 004°59'0 0.0
2015-May-04 13:29N 43°24' E 004°59'0 0.0
2015-May-04 12:32N 43°24' E 004°59'5 0.8
2015-May-04 06:21N 43°24' E 004°52'5 5.9
2015-May-04 05:28N 43°24' E 004°59'0 0.0
2015-May-04 04:22N 43°24' E 004°59'0 0.0
2015-May-04 03:22N 43°24' E 004°59'0 0.0
2015-May-04 02:28N 43°24' E 004°59'0 0.0
2015-May-04 01:28N 43°24' E 004°59'0 0.0
2015-May-04 00:22N 43°24' E 004°59'0 0.0
2015-May-03 23:28N 43°24' E 004°59'0 0.0
2015-May-03 22:22N 43°24' E 004°59'0 0.0
2015-May-03 21:31N 43°24' E 004°59'0 0.0
2015-May-03 20:25N 43°24' E 004°59'0 0.4
2015-May-03 19:28N 43°24' E 004°59'0 0.0
2015-May-03 18:22N 43°24' E 004°59'0 0.0
2015-May-03 17:16N 43°24' E 004°59'0 0.0
2015-May-03 16:28N 43°24' E 004°59'0 0.0
2015-May-03 15:28N 43°24' E 004°59'0 0.0
2015-May-03 14:28N 43°24' E 004°59'0 0.0
2015-May-03 13:22N 43°24' E 004°59'0 0.0
2015-May-03 12:22N 43°24' E 004°59'4 5.1
2015-May-03 11:33N 43°25' E 004°54'0 0.1
2015-May-03 10:05N 43°25' E 004°54'0 0.0
2015-May-03 09:23N 43°25' E 004°54'2 0.7
2015-May-03 06:21N 43°24' E 004°56'2 2.7
2015-May-03 05:30N 43°24' E 004°59'0 0.0
2015-May-03 04:30N 43°24' E 004°59'0 0.0
2015-May-03 03:30N 43°24' E 004°59'0 0.0
2015-May-03 02:30N 43°24' E 004°59'0 0.0
2015-May-03 01:30N 43°24' E 004°59'0 0.0
2015-May-03 00:30N 43°24' E 004°59'0 0.0
2015-May-02 23:30N 43°24' E 004°59'0 0.0
2015-May-02 22:30N 43°24' E 004°59'0 0.0
2015-May-02 21:33N 43°24' E 004°59'0 0.0
2015-May-02 20:30N 43°24' E 004°59'0 0.0
2015-May-02 19:33N 43°24' E 004°59'0 0.0
2015-May-02 18:24N 43°24' E 004°59'0 0.0
2015-May-02 17:30N 43°24' E 004°59'1 0.6
2015-May-02 16:33N 43°23' E 004°59'13 9.2
2015-May-02 15:09N 43°20' E 005°16'3 3.6
2015-May-02 14:20N 43°21' E 005°20'0 0.0
2015-May-02 13:32N 43°21' E 005°20'0 0.0
2015-May-02 12:29N 43°21' E 005°20'0 0.0
2015-May-02 11:31N 43°21' E 005°20'0 0.0
2015-May-02 10:28N 43°21' E 005°20'1 0.4
2015-May-02 07:30N 43°21' E 005°18'1310.0
2015-May-02 06:10N 43°19' E 005°00'5 7.3
2015-May-02 05:31N 43°24' E 004°59'0 0.0
2015-May-02 04:31N 43°24' E 004°59'0 0.0
2015-May-02 03:31N 43°24' E 004°59'0 0.0
2015-May-02 02:31N 43°24' E 004°59'0 0.0
2015-May-02 01:31N 43°24' E 004°59'0 0.0
2015-May-02 00:31N 43°24' E 004°59'0 0.0
2015-May-01 23:25N 43°24' E 004°59'0 0.0
2015-May-01 22:31N 43°24' E 004°59'0 0.0
2015-May-01 21:31N 43°24' E 004°59'0 0.4
2015-May-01 20:25N 43°24' E 004°59'0 0.0
2015-May-01 19:31N 43°24' E 004°59'0 0.0
2015-May-01 18:31N 43°24' E 004°59'0 0.0
2015-May-01 17:31N 43°24' E 004°59'0 0.0
2015-May-01 16:31N 43°24' E 004°59'0 0.0
2015-May-01 15:31N 43°24' E 004°59'0 0.0
2015-May-01 14:31N 43°24' E 004°59'0 0.0
2015-May-01 13:19N 43°24' E 004°59'0 0.0
2015-May-01 12:31N 43°24' E 004°59'0 0.0
2015-May-01 11:31N 43°24' E 004°59'0 0.0
2015-May-01 10:25N 43°24' E 004°59'0 0.0
2015-May-01 09:31N 43°24' E 004°59'0 0.0
2015-May-01 08:28N 43°24' E 004°59'0 0.0
2015-May-01 07:31N 43°24' E 004°59'0 0.0
2015-May-01 06:31N 43°24' E 004°59'0 0.0
2015-May-01 05:31N 43°24' E 004°59'0 0.0
2015-May-01 04:31N 43°24' E 004°59'0 0.0
2015-May-01 03:25N 43°24' E 004°59'0 0.0
2015-May-01 02:28N 43°24' E 004°59'0 0.0
2015-May-01 01:17N 43°24' E 004°59'0 0.0
2015-May-01 00:25N 43°24' E 004°59'0 0.0
2015-Apr-30 23:31N 43°24' E 004°59'0 0.0
2015-Apr-30 22:31N 43°24' E 004°59'0 0.0
2015-Apr-30 21:31N 43°24' E 004°59'0 0.0
2015-Apr-30 20:31N 43°24' E 004°59'0 0.0
2015-Apr-30 19:31N 43°24' E 004°59'0 0.0
2015-Apr-30 18:31N 43°24' E 004°59'0 0.0
2015-Apr-30 17:25N 43°24' E 004°59'0 0.0
2015-Apr-30 16:31N 43°24' E 004°59'0 0.0
2015-Apr-30 15:28N 43°24' E 004°59'0 0.0
2015-Apr-30 14:28N 43°24' E 004°59'0 0.4
2015-Apr-30 13:34N 43°24' E 004°59'0 0.1
2015-Apr-30 09:31N 43°24' E 004°59'0 0.0
2015-Apr-30 08:31N 43°24' E 004°59'0 0.0
2015-Apr-30 07:31N 43°24' E 004°59'0 0.0
2015-Apr-30 06:32N 43°24' E 004°59'0 0.0
2015-Apr-30 05:32N 43°24' E 004°59'0 0.0
2015-Apr-30 04:32N 43°24' E 004°59'0 0.0
2015-Apr-30 03:23N 43°24' E 004°59'0 0.0
2015-Apr-30 02:32N 43°24' E 004°59'1 0.1
2015-Apr-29 18:27N 43°24' E 004°59'0 0.0
2015-Apr-29 17:27N 43°24' E 004°59'0 0.0
2015-Apr-29 16:33N 43°24' E 004°59'0 0.0
2015-Apr-29 15:33N 43°24' E 004°59'0 0.0
2015-Apr-29 14:33N 43°24' E 004°59'0 0.0
2015-Apr-29 13:33N 43°24' E 004°59'0 0.0
2015-Apr-29 12:33N 43°24' E 004°59'0 0.0
2015-Apr-29 11:30N 43°24' E 004°59'0 0.0
2015-Apr-29 10:33N 43°24' E 004°59'0 0.0
2015-Apr-29 09:33N 43°24' E 004°59'0 0.0
2015-Apr-29 08:33N 43°24' E 004°59'1 0.6
2015-Apr-29 07:29N 43°24' E 004°59'0 0.0
2015-Apr-29 06:29N 43°24' E 004°59'0 0.0
2015-Apr-29 05:29N 43°24' E 004°59'0 0.0
2015-Apr-29 04:29N 43°24' E 004°59'0 0.0
2015-Apr-29 03:29N 43°24' E 004°59'0 0.0
2015-Apr-29 02:29N 43°24' E 004°59'0 0.0
2015-Apr-29 01:29N 43°24' E 004°59'0 0.0
2015-Apr-29 00:29N 43°24' E 004°59'0 0.0
2015-Apr-28 23:23N 43°24' E 004°59'0 0.0
2015-Apr-28 22:29N 43°24' E 004°59'0 0.0
2015-Apr-28 21:29N 43°24' E 004°59'0 0.1
2015-Apr-28 20:30N 43°24' E 004°59'2 0.4
2015-Apr-28 15:10N 43°23' E 004°57'2 2.6
2015-Apr-28 14:25N 43°24' E 004°59'0 0.0
2015-Apr-28 13:31N 43°24' E 004°59'0 0.0
2015-Apr-28 12:31N 43°24' E 004°59'0 0.0
2015-Apr-28 11:28N 43°24' E 004°59'0 0.0
2015-Apr-28 10:28N 43°24' E 004°59'0 0.0
2015-Apr-28 09:31N 43°24' E 004°59'0 0.0
2015-Apr-28 08:31N 43°24' E 004°59'0 0.0
2015-Apr-28 07:31N 43°24' E 004°59'1 0.6
2015-Apr-28 06:31N 43°24' E 004°59'0 0.0
2015-Apr-28 05:28N 43°24' E 004°59'0 0.0
2015-Apr-28 04:31N 43°24' E 004°59'0 0.0
2015-Apr-28 03:31N 43°24' E 004°59'0 0.0
2015-Apr-28 02:31N 43°24' E 004°59'0 0.0
2015-Apr-28 01:31N 43°24' E 004°59'0 0.0
2015-Apr-28 00:31N 43°24' E 004°59'0 0.0
2015-Apr-27 23:31N 43°24' E 004°59'0 0.0
2015-Apr-27 22:31N 43°24' E 004°59'0 0.0
2015-Apr-27 21:31N 43°24' E 004°59'0 0.0
2015-Apr-27 20:31N 43°24' E 004°59'0 0.1
2015-Apr-27 13:30N 43°24' E 004°59'0 0.0
2015-Apr-27 12:30N 43°24' E 004°59'0 0.0
2015-Apr-27 11:33N 43°24' E 004°59'0 0.0
2015-Apr-27 10:30N 43°24' E 004°59'0 0.0
2015-Apr-27 09:30N 43°24' E 004°59'0 0.0
2015-Apr-27 08:33N 43°24' E 004°59'0 0.0
2015-Apr-27 07:30N 43°24' E 004°59'0 0.0
2015-Apr-27 06:30N 43°24' E 004°59'0 0.4
2015-Apr-27 05:28N 43°24' E 004°59'0 0.0
2015-Apr-27 04:22N 43°24' E 004°59'0 0.0
2015-Apr-27 03:28N 43°24' E 004°59'0 0.0
2015-Apr-27 02:28N 43°24' E 004°59'0 0.0
2015-Apr-27 01:28N 43°24' E 004°59'0 0.0
2015-Apr-27 00:28N 43°24' E 004°59'0 0.0
2015-Apr-26 23:28N 43°24' E 004°59'0 0.0
2015-Apr-26 22:31N 43°24' E 004°59'0 0.0
2015-Apr-26 21:28N 43°24' E 004°59'0 0.0
2015-Apr-26 20:31N 43°24' E 004°59'0 0.0
2015-Apr-26 19:28N 43°24' E 004°59'0 0.0
2015-Apr-26 18:22N 43°24' E 004°59'0 0.0
2015-Apr-26 17:28N 43°24' E 004°59'0 0.0
2015-Apr-26 16:28N 43°24' E 004°59'0 0.0
2015-Apr-26 15:28N 43°24' E 004°59'0 0.0
2015-Apr-26 14:28N 43°24' E 004°59'0 0.0
2015-Apr-26 13:22N 43°24' E 004°59'0 0.0
2015-Apr-26 12:28N 43°24' E 004°59'0 0.0
2015-Apr-26 11:28N 43°24' E 004°59'0 0.0
2015-Apr-26 10:28N 43°24' E 004°59'0 0.0
2015-Apr-26 09:28N 43°24' E 004°59'0 0.0
2015-Apr-26 08:28N 43°24' E 004°59'0 0.0
2015-Apr-26 07:28N 43°24' E 004°59'0 0.0
2015-Apr-26 06:28N 43°24' E 004°59'0 0.0
2015-Apr-26 05:25N 43°24' E 004°59'0 0.0
2015-Apr-26 04:28N 43°24' E 004°59'0 0.0
2015-Apr-26 03:22N 43°24' E 004°59'0 0.0
2015-Apr-26 02:28N 43°24' E 004°59'0 0.0
2015-Apr-26 01:31N 43°24' E 004°59'0 0.0
2015-Apr-26 00:28N 43°24' E 004°59'0 0.0
2015-Apr-25 23:28N 43°24' E 004°59'0 0.0
2015-Apr-25 22:28N 43°24' E 004°59'0 0.0
2015-Apr-25 21:22N 43°24' E 004°59'0 0.0
2015-Apr-25 20:31N 43°24' E 004°59'0 0.0
2015-Apr-25 19:31N 43°24' E 004°59'0 0.0
2015-Apr-25 18:28N 43°24' E 004°59'0 0.0
2015-Apr-25 17:28N 43°24' E 004°59'  

Dump ship's entire track history